createdAt,value
2022-08-03T00:01:51.710Z,4.93
2022-08-03T00:04:21.047Z,6.72
2022-08-03T00:07:00.709Z,6.10
2022-08-03T00:09:27.769Z,5.00
2022-08-03T00:12:02.390Z,5.80
2022-08-03T00:14:28.979Z,6.30
2022-08-03T00:16:58.071Z,6.63
2022-08-03T00:19:24.698Z,6.65
2022-08-03T00:21:51.443Z,7.57
2022-08-03T00:24:18.206Z,6.93
2022-08-03T00:26:44.595Z,7.47
2022-08-03T00:29:11.668Z,6.03
2022-08-03T00:31:52.297Z,7.38
2022-08-03T00:34:36.627Z,9.80
2022-08-03T00:37:06.793Z,4.43
2022-08-03T00:39:33.397Z,5.82
2022-08-03T00:42:08.975Z,7.45
2022-08-03T00:44:43.680Z,17.25
2022-08-03T00:47:11.588Z,6.00
2022-08-03T00:49:39.673Z,6.35
2022-08-03T00:52:11.436Z,4.80
2022-08-03T00:54:42.420Z,5.78
2022-08-03T00:57:13.018Z,6.60
2022-08-03T01:02:06.271Z,5.00
2022-08-03T01:04:32.658Z,5.05
2022-08-03T01:07:27.984Z,5.00
2022-08-03T01:10:11.550Z,6.43
2022-08-03T01:13:59.197Z,6.10
2022-08-03T01:16:08.963Z,10.77
2022-08-03T01:18:45.119Z,10.40
2022-08-03T01:21:20.637Z,5.10
2022-08-03T01:23:56.630Z,5.95
2022-08-03T01:26:42.620Z,4.90
2022-08-03T01:29:20.456Z,4.97
2022-08-03T01:32:59.231Z,7.93
2022-08-03T01:34:58.609Z,6.90
2022-08-03T01:37:32.092Z,6.15
2022-08-03T01:40:03.088Z,6.13
2022-08-03T01:42:32.828Z,8.25
2022-08-03T01:45:02.447Z,5.88
2022-08-03T01:47:30.319Z,5.93
2022-08-03T01:49:59.655Z,6.40
2022-08-03T01:52:27.534Z,5.28
2022-08-03T01:54:55.740Z,6.55
2022-08-03T01:57:23.996Z,7.35
2022-08-03T01:59:51.104Z,5.38
2022-08-03T02:02:32.636Z,6.15
2022-08-03T02:05:01.472Z,6.28
2022-08-03T02:07:30.825Z,5.47
2022-08-03T02:09:59.360Z,8.32
2022-08-03T02:12:28.534Z,7.88
2022-08-03T02:14:56.783Z,7.97
2022-08-03T02:17:38.986Z,5.40
2022-08-03T02:20:07.339Z,5.25
2022-08-03T02:22:34.657Z,7.38
2022-08-03T02:25:01.659Z,6.72
2022-08-03T02:27:33.955Z,6.38
2022-08-03T02:30:08.128Z,5.40
2022-08-03T02:32:41.811Z,5.22
2022-08-03T02:35:13.821Z,7.63
2022-08-03T02:37:45.130Z,5.30
2022-08-03T02:40:18.755Z,12.45
2022-08-03T02:42:47.038Z,7.70
2022-08-03T02:45:17.016Z,6.60
2022-08-03T02:47:54.295Z,5.28
2022-08-03T02:50:22.958Z,7.25
2022-08-03T02:52:51.137Z,6.03
2022-08-03T02:55:20.400Z,6.00
2022-08-03T02:57:48.028Z,5.63
2022-08-03T03:00:19.663Z,5.50
2022-08-03T03:03:00.415Z,8.48
2022-08-03T03:05:52.794Z,5.30
2022-08-03T03:08:18.068Z,9.15
2022-08-03T03:10:46.581Z,6.07
2022-08-03T03:13:15.903Z,8.98
2022-08-03T03:15:47.014Z,6.90
2022-08-03T03:18:18.952Z,5.68
2022-08-03T03:20:51.647Z,5.63
2022-08-03T03:23:20.551Z,6.03
2022-08-03T03:25:47.008Z,9.02
2022-08-03T03:28:15.563Z,7.53
2022-08-03T03:30:42.569Z,8.07
2022-08-03T03:33:09.203Z,5.50
2022-08-03T03:35:38.756Z,9.23
2022-08-03T03:38:06.945Z,6.45
2022-08-03T03:40:35.878Z,7.38
2022-08-03T03:43:03.132Z,7.32
2022-08-03T03:45:31.278Z,7.18
2022-08-03T03:48:00.417Z,8.70
2022-08-03T03:50:29.014Z,7.25
2022-08-03T03:52:55.502Z,7.40
2022-08-03T03:55:22.228Z,7.55
2022-08-03T03:57:48.577Z,5.47
2022-08-03T04:00:17.539Z,9.02
2022-08-03T04:02:46.216Z,5.72
2022-08-03T04:05:13.510Z,9.18
2022-08-03T04:07:59.433Z,5.88
2022-08-03T04:10:28.947Z,7.15
2022-08-03T04:12:59.048Z,5.93
2022-08-03T04:15:28.187Z,6.32
2022-08-03T04:18:00.244Z,7.28
2022-08-03T04:20:30.645Z,8.82
2022-08-03T04:22:58.792Z,6.13
2022-08-03T04:25:35.460Z,7.70
2022-08-03T04:28:07.654Z,5.95
2022-08-03T04:30:50.493Z,5.60
2022-08-03T04:33:19.404Z,5.55
2022-08-03T04:36:01.846Z,5.97
2022-08-03T04:38:31.723Z,6.32
2022-08-03T04:40:59.791Z,14.18
2022-08-03T04:43:28.051Z,7.85
2022-08-03T04:45:57.479Z,5.53
2022-08-03T04:48:24.750Z,5.40
2022-08-03T04:50:51.763Z,10.32
2022-08-03T04:53:18.047Z,8.48
2022-08-03T04:55:45.348Z,7.43
2022-08-03T04:58:14.360Z,6.90
2022-08-03T05:00:41.414Z,8.60
2022-08-03T05:03:23.612Z,6.43
2022-08-03T05:05:53.062Z,7.45
2022-08-03T05:08:29.547Z,7.78
2022-08-03T05:10:59.459Z,6.53
2022-08-03T05:13:26.389Z,6.47
2022-08-03T05:15:52.785Z,11.77
2022-08-03T05:18:19.241Z,6.78
2022-08-03T05:20:45.653Z,5.47
2022-08-03T05:23:12.268Z,8.00
2022-08-03T05:25:39.404Z,5.47
2022-08-03T05:28:06.408Z,5.88
2022-08-03T05:30:34.324Z,4.07
2022-08-03T05:33:02.376Z,4.88
2022-08-03T05:35:57.476Z,4.95
2022-08-03T05:38:23.920Z,6.20
2022-08-03T05:40:56.778Z,5.65
2022-08-03T05:43:24.690Z,7.67
2022-08-03T05:46:11.567Z,5.00
2022-08-03T05:48:38.386Z,5.15
2022-08-03T05:51:05.051Z,5.82
2022-08-03T05:53:34.381Z,5.63
2022-08-03T05:56:13.077Z,6.28
2022-08-03T06:01:07.901Z,8.68
2022-08-03T06:03:34.540Z,7.22
2022-08-03T06:06:01.223Z,5.97
2022-08-03T06:08:28.763Z,5.53
2022-08-03T06:10:55.331Z,5.35
2022-08-03T06:13:21.702Z,5.55
2022-08-03T06:15:48.203Z,6.68
2022-08-03T06:18:14.814Z,8.13
2022-08-03T06:20:42.041Z,5.85
2022-08-03T06:23:08.474Z,5.70
2022-08-03T06:25:45.505Z,5.68
2022-08-03T06:28:35.417Z,6.63
2022-08-03T06:30:59.204Z,5.25
2022-08-03T06:33:25.594Z,7.40
2022-08-03T06:36:12.088Z,7.30
2022-08-03T06:38:40.111Z,8.77
2022-08-03T06:41:06.507Z,6.82
2022-08-03T06:43:35.839Z,7.43
2022-08-03T06:46:02.739Z,7.73
2022-08-03T06:48:30.026Z,7.00
2022-08-03T06:50:56.927Z,9.90
2022-08-03T06:53:24.752Z,6.53
2022-08-03T06:55:54.659Z,7.97
2022-08-03T06:58:22.216Z,9.48
2022-08-03T07:00:48.634Z,6.40
2022-08-03T07:03:15.342Z,6.60
2022-08-03T07:05:42.625Z,5.53
2022-08-03T07:08:09.676Z,7.13
2022-08-03T07:10:36.045Z,7.43
2022-08-03T07:13:02.420Z,8.27
2022-08-03T07:15:53.921Z,5.35
2022-08-03T07:18:15.291Z,6.85
2022-08-03T07:20:42.120Z,4.80
2022-08-03T07:23:08.792Z,5.72
2022-08-03T07:25:35.578Z,6.65
2022-08-03T07:28:02.921Z,4.07
2022-08-03T07:30:29.919Z,5.60
2022-08-03T07:32:56.660Z,5.13
2022-08-03T07:35:24.750Z,5.07
2022-08-03T07:37:54.714Z,4.63
2022-08-03T07:40:22.496Z,5.18
2022-08-03T07:42:52.106Z,4.38
2022-08-03T07:45:20.266Z,4.32
2022-08-03T07:47:53.182Z,3.80
2022-08-03T07:50:20.968Z,4.30
2022-08-03T07:52:47.523Z,4.50
2022-08-03T07:55:14.120Z,4.43
2022-08-03T07:57:40.609Z,5.30
2022-08-03T08:00:13.323Z,3.92
2022-08-03T08:02:40.864Z,3.92
2022-08-03T08:05:08.104Z,5.35
2022-08-03T08:07:34.750Z,8.13
2022-08-03T08:10:01.405Z,4.63
2022-08-03T08:12:28.240Z,4.78
2022-08-03T08:14:54.647Z,8.05
2022-08-03T08:17:21.179Z,4.85
2022-08-03T08:19:51.395Z,8.75
2022-08-03T08:22:18.786Z,3.92
2022-08-03T08:24:49.958Z,3.53
2022-08-03T08:27:18.842Z,3.30
2022-08-03T08:29:52.595Z,4.90
2022-08-03T08:32:23.095Z,3.78
2022-08-03T08:34:49.658Z,2.80
2022-08-03T08:37:17.131Z,5.25
2022-08-03T08:39:43.588Z,3.80
2022-08-03T08:42:10.311Z,4.40
2022-08-03T08:44:36.930Z,4.28
2022-08-03T08:47:03.548Z,6.18
2022-08-03T08:49:31.487Z,4.88
2022-08-03T08:52:01.253Z,3.63
2022-08-03T08:54:29.573Z,4.18
2022-08-03T08:56:59.292Z,4.65
2022-08-03T08:59:26.981Z,6.53
2022-08-03T09:02:13.699Z,3.90
2022-08-03T09:04:40.346Z,3.25
2022-08-03T09:07:29.252Z,4.13
2022-08-03T09:10:10.560Z,2.83
2022-08-03T09:12:42.846Z,4.05
2022-08-03T09:15:22.081Z,3.45
2022-08-03T09:17:51.230Z,4.00
2022-08-03T09:20:19.073Z,3.88
2022-08-03T09:22:57.305Z,2.88
2022-08-03T09:25:35.768Z,5.60
2022-08-03T09:28:58.172Z,4.25
2022-08-03T09:31:18.004Z,3.28
2022-08-03T09:33:54.698Z,2.25
2022-08-03T09:36:42.373Z,2.08
2022-08-03T09:39:14.620Z,4.57
2022-08-03T09:41:43.359Z,2.55
2022-08-03T09:44:16.229Z,3.33
2022-08-03T09:46:56.689Z,4.30
2022-08-03T09:49:24.710Z,3.08
2022-08-03T09:52:32.529Z,1.95
2022-08-03T09:54:38.925Z,2.65
2022-08-03T09:57:05.638Z,1.67
2022-08-03T09:59:34.517Z,6.15
2022-08-03T10:02:01.930Z,1.70
2022-08-03T10:04:29.224Z,1.40
2022-08-03T10:07:11.363Z,1.60
2022-08-03T10:09:55.954Z,2.13
2022-08-03T10:12:22.945Z,1.88
2022-08-03T10:14:52.799Z,2.83
2022-08-03T10:17:21.270Z,1.77
2022-08-03T10:19:48.719Z,2.00
2022-08-03T10:22:18.878Z,1.88
2022-08-03T10:24:57.482Z,2.85
2022-08-03T10:27:25.017Z,2.20
2022-08-03T10:29:55.734Z,1.83
2022-08-03T10:32:34.913Z,2.55
2022-08-03T10:35:18.959Z,1.33
2022-08-03T10:37:56.666Z,2.97
2022-08-03T10:40:46.823Z,1.45
2022-08-03T10:43:28.810Z,1.80
2022-08-03T10:45:56.317Z,1.40
2022-08-03T10:48:24.167Z,2.03
2022-08-03T10:50:50.947Z,2.00
2022-08-03T10:53:34.626Z,1.83
2022-08-03T10:56:01.923Z,2.85
2022-08-03T10:58:37.578Z,1.75
2022-08-03T11:01:59.832Z,2.08
2022-08-03T11:04:28.677Z,1.70
2022-08-03T11:07:24.426Z,1.73
2022-08-03T11:09:58.315Z,2.13
2022-08-03T11:12:31.155Z,1.60
2022-08-03T11:15:31.775Z,3.25
2022-08-03T11:21:07.367Z,3.88
2022-08-03T11:24:03.384Z,2.83
2022-08-03T11:26:32.419Z,2.42
2022-08-03T11:29:28.432Z,1.80
2022-08-03T11:31:55.001Z,1.88
2022-08-03T11:34:21.424Z,1.95
2022-08-03T11:37:20.998Z,2.72
2022-08-03T11:42:24.334Z,1.55
2022-08-03T11:44:55.233Z,2.55
2022-08-03T11:47:22.863Z,1.92
2022-08-03T11:49:52.207Z,3.65
2022-08-03T11:52:19.001Z,1.65
2022-08-03T11:54:45.694Z,2.08
2022-08-03T11:57:12.222Z,3.10
2022-08-03T11:59:39.003Z,6.28
2022-08-03T12:02:12.154Z,2.45
2022-08-03T12:04:50.595Z,1.60
2022-08-03T12:07:25.067Z,2.88
2022-08-03T12:10:26.587Z,3.03
2022-08-03T12:12:59.570Z,3.10
2022-08-03T12:15:32.416Z,1.67
2022-08-03T12:17:59.050Z,1.58
2022-08-03T12:20:35.284Z,1.88
2022-08-03T12:23:03.913Z,3.80
2022-08-03T12:25:39.049Z,4.57
2022-08-03T12:28:36.149Z,3.92
2022-08-03T12:31:10.924Z,1.70
2022-08-03T12:34:15.209Z,1.40
2022-08-03T12:36:55.972Z,2.58
2022-08-03T12:42:08.377Z,1.60
2022-08-03T12:44:36.644Z,1.80
2022-08-03T12:47:06.899Z,1.95
2022-08-03T12:49:53.090Z,5.25
2022-08-03T12:52:22.340Z,4.53
2022-08-03T12:55:00.351Z,2.28
2022-08-03T12:57:41.138Z,3.40
2022-08-03T13:00:28.651Z,1.90
2022-08-03T13:03:26.466Z,2.03
2022-08-03T13:05:46.960Z,1.60
2022-08-03T13:08:24.345Z,2.38
2022-08-03T13:10:51.379Z,1.70
2022-08-03T13:13:18.346Z,3.40
2022-08-03T13:15:48.202Z,2.70
2022-08-03T13:18:17.176Z,1.90
2022-08-03T13:20:44.179Z,2.83
2022-08-03T13:23:16.183Z,1.70
2022-08-03T13:25:55.592Z,1.40
2022-08-03T13:28:23.005Z,1.88
2022-08-03T13:30:49.943Z,2.10
2022-08-03T13:33:16.616Z,1.50
2022-08-03T13:35:43.367Z,1.98
2022-08-03T13:38:09.911Z,1.95
2022-08-03T13:40:41.414Z,2.38
2022-08-03T13:43:09.141Z,2.40
2022-08-03T13:45:36.148Z,1.70
2022-08-03T13:48:02.633Z,2.17
2022-08-03T13:50:29.310Z,1.40
2022-08-03T13:52:56.332Z,5.28
2022-08-03T13:55:22.930Z,1.35
2022-08-03T13:58:06.347Z,1.70
2022-08-03T14:00:34.403Z,1.70
2022-08-03T14:03:09.509Z,2.08
2022-08-03T14:05:40.020Z,1.35
2022-08-03T14:08:08.269Z,2.05
2022-08-03T14:10:42.918Z,1.60
2022-08-03T14:13:11.727Z,2.95
2022-08-03T14:15:39.416Z,2.75
2022-08-03T14:18:12.870Z,1.52
2022-08-03T14:20:47.792Z,1.67
2022-08-03T14:23:18.064Z,1.88
2022-08-03T14:25:51.788Z,1.95
2022-08-03T14:28:23.913Z,1.60
2022-08-03T14:30:51.945Z,1.65
2022-08-03T14:33:18.699Z,3.17
2022-08-03T14:35:45.301Z,1.85
2022-08-03T14:38:11.833Z,1.40
2022-08-03T14:40:38.483Z,1.42
2022-08-03T14:43:05.263Z,1.85
2022-08-03T14:45:32.015Z,2.25
2022-08-03T14:50:29.294Z,1.70
2022-08-03T14:50:50.503Z,1.60
2022-08-03T14:53:21.157Z,2.47
2022-08-03T14:55:50.836Z,1.70
2022-08-03T14:58:22.552Z,2.95
2022-08-03T15:00:51.157Z,2.58
2022-08-03T15:03:18.794Z,1.58
2022-08-03T15:05:45.319Z,1.85
2022-08-03T15:08:11.746Z,1.52
2022-08-03T15:10:40.235Z,1.90
2022-08-03T15:13:07.370Z,1.40
2022-08-03T15:15:34.429Z,1.70
2022-08-03T15:18:01.026Z,1.20
2022-08-03T15:20:42.431Z,1.77
2022-08-03T15:23:09.994Z,1.65
2022-08-03T15:26:04.088Z,3.80
2022-08-03T15:28:23.009Z,1.88
2022-08-03T15:30:51.961Z,1.40
2022-08-03T15:33:18.667Z,1.50
2022-08-03T15:35:45.283Z,3.15
2022-08-03T15:38:11.682Z,3.47
2022-08-03T15:40:38.090Z,2.65
2022-08-03T15:43:04.711Z,2.67
2022-08-03T15:45:36.195Z,1.67
2022-08-03T15:48:06.149Z,2.33
2022-08-03T15:50:35.097Z,2.35
2022-08-03T15:53:01.590Z,1.60
2022-08-03T15:55:28.269Z,1.65
2022-08-03T15:59:09.397Z,1.70
2022-08-03T16:00:43.500Z,1.92
2022-08-03T16:03:10.333Z,1.25
2022-08-03T16:05:36.679Z,2.75
2022-08-03T16:08:05.066Z,1.73
2022-08-03T16:10:33.689Z,1.70
2022-08-03T16:13:00.413Z,1.70
2022-08-03T16:15:27.517Z,1.65
2022-08-03T16:17:54.535Z,1.83
2022-08-03T16:20:31.587Z,1.67
2022-08-03T16:23:08.482Z,1.92
2022-08-03T16:25:39.388Z,1.23
2022-08-03T16:28:13.091Z,2.53
2022-08-03T16:30:42.684Z,1.80
2022-08-03T16:33:10.043Z,1.70
2022-08-03T16:35:37.091Z,2.63
2022-08-03T16:38:09.735Z,1.92
2022-08-03T16:40:36.771Z,1.40
2022-08-03T16:43:17.952Z,2.22
2022-08-03T16:45:47.262Z,1.42
2022-08-03T16:48:14.828Z,2.78
2022-08-03T16:50:41.564Z,1.98
2022-08-03T16:53:16.602Z,1.50
2022-08-03T16:55:52.027Z,1.50
2022-08-03T16:58:41.764Z,1.83
2022-08-03T17:01:21.500Z,2.60
2022-08-03T17:04:02.727Z,1.60
2022-08-03T17:06:36.801Z,1.70
2022-08-03T17:09:11.280Z,2.60
2022-08-03T17:11:44.169Z,2.35
2022-08-03T17:14:14.608Z,1.98
2022-08-03T17:16:52.284Z,2.03
2022-08-03T17:19:23.423Z,3.10
2022-08-03T17:22:04.109Z,3.33
2022-08-03T17:24:41.468Z,5.15
2022-08-03T17:28:41.641Z,1.98
2022-08-03T17:30:13.634Z,1.58
2022-08-03T17:32:57.119Z,2.28
2022-08-03T17:35:36.431Z,2.50
2022-08-03T17:38:07.913Z,1.98
2022-08-03T17:40:39.559Z,2.25
2022-08-03T17:44:12.800Z,2.33
2022-08-03T17:48:37.354Z,3.15
2022-08-03T17:51:46.292Z,2.95
2022-08-03T17:54:37.883Z,1.48
2022-08-03T17:58:01.271Z,1.67
2022-08-03T18:00:20.324Z,3.40
2022-08-03T18:03:17.413Z,1.70
2022-08-03T18:08:50.368Z,1.58
2022-08-03T18:11:20.128Z,1.75
2022-08-03T18:14:29.099Z,1.95
2022-08-03T18:17:10.439Z,5.47
2022-08-03T18:22:27.979Z,2.65
2022-08-03T18:24:58.997Z,2.38
2022-08-03T18:27:42.670Z,2.33
2022-08-03T18:30:13.305Z,2.47
2022-08-03T18:32:43.955Z,2.60
2022-08-03T18:35:27.433Z,2.95
2022-08-03T18:38:16.629Z,1.60
2022-08-03T18:40:48.676Z,2.70
2022-08-03T18:43:15.693Z,4.55
2022-08-03T18:45:57.367Z,5.45
2022-08-03T18:48:30.428Z,7.50
2022-08-03T18:51:06.814Z,5.47
2022-08-03T18:54:06.321Z,5.18
2022-08-03T18:56:52.898Z,8.02
2022-08-03T18:59:30.896Z,6.88
2022-08-03T19:02:05.609Z,3.40
2022-08-03T19:04:46.272Z,4.90
2022-08-03T19:07:17.997Z,4.32
2022-08-03T19:09:49.569Z,3.55
2022-08-03T19:12:26.624Z,3.05
2022-08-03T19:15:12.759Z,3.20
2022-08-03T19:17:52.799Z,3.38
2022-08-03T19:20:31.882Z,2.83
2022-08-03T19:22:59.844Z,3.85
2022-08-03T19:25:35.062Z,2.47
2022-08-03T19:28:16.207Z,3.25
2022-08-03T19:30:53.746Z,3.15
2022-08-03T19:33:20.571Z,3.70
2022-08-03T19:35:51.854Z,6.45
2022-08-03T19:38:28.622Z,3.00
2022-08-03T19:40:59.717Z,2.25
2022-08-03T19:43:53.410Z,5.50
2022-08-03T19:46:23.292Z,2.92
2022-08-03T19:49:02.775Z,3.17
2022-08-03T19:52:00.968Z,4.75
2022-08-03T19:54:32.137Z,2.88
2022-08-03T19:57:02.311Z,4.40
2022-08-03T19:59:32.565Z,3.35
2022-08-03T20:04:26.126Z,3.95
2022-08-03T20:06:52.636Z,3.88
2022-08-03T20:09:20.456Z,2.60
2022-08-03T20:11:47.786Z,5.43
2022-08-03T20:14:26.282Z,3.58
2022-08-03T20:16:53.257Z,2.50
2022-08-03T20:19:20.009Z,5.05
2022-08-03T20:21:48.275Z,5.43
2022-08-03T20:24:38.427Z,4.40
2022-08-03T20:27:07.917Z,5.65
2022-08-03T20:30:05.301Z,6.25
2022-08-03T20:32:25.094Z,7.65
2022-08-03T20:34:51.662Z,6.75
2022-08-03T20:37:19.602Z,5.03
2022-08-03T20:39:48.170Z,5.43
2022-08-03T20:42:21.147Z,4.72
2022-08-03T20:45:04.355Z,4.20
2022-08-03T20:47:34.080Z,3.83
2022-08-03T20:50:03.680Z,4.10
2022-08-03T20:52:31.853Z,3.70
2022-08-03T20:54:59.323Z,4.50
2022-08-03T21:00:00.847Z,4.47
2022-08-03T21:02:31.017Z,4.45
2022-08-03T21:05:08.597Z,3.05
2022-08-03T21:10:39.803Z,5.15
2022-08-03T21:12:56.698Z,2.17
2022-08-03T21:12:57.649Z,1.92
2022-08-03T21:13:12.765Z,4.65
2022-08-03T21:13:42.814Z,4.63
2022-08-03T21:16:15.043Z,5.28
2022-08-03T21:18:54.611Z,2.70
2022-08-03T21:21:23.713Z,3.17
2022-08-03T21:23:52.876Z,4.80
2022-08-03T21:26:22.063Z,8.75
2022-08-03T21:28:53.203Z,4.72
2022-08-03T21:31:24.526Z,3.83
2022-08-03T21:34:04.699Z,5.32
2022-08-03T21:36:36.888Z,3.75
2022-08-03T21:39:06.486Z,3.97
2022-08-03T21:41:33.464Z,3.58
2022-08-03T21:44:00.981Z,4.18
2022-08-03T21:46:36.816Z,4.25
2022-08-03T21:50:06.777Z,3.13
2022-08-03T21:51:59.029Z,7.97
2022-08-03T21:54:40.882Z,5.18
2022-08-03T21:57:23.686Z,4.53
2022-08-03T21:59:56.178Z,5.90
2022-08-03T22:02:27.814Z,3.80
2022-08-03T22:04:58.355Z,4.32
2022-08-03T22:07:26.879Z,4.40
2022-08-03T22:09:58.832Z,3.35
2022-08-03T22:12:27.845Z,5.47
2022-08-03T22:15:07.121Z,3.72
2022-08-03T22:17:54.177Z,3.22
2022-08-03T22:20:22.840Z,4.05
2022-08-03T22:22:56.572Z,3.97
2022-08-03T22:25:29.514Z,4.97
2022-08-03T22:28:06.121Z,3.78
2022-08-03T22:30:32.857Z,3.03
2022-08-03T22:33:03.939Z,4.03
2022-08-03T22:35:47.458Z,4.25
2022-08-03T22:38:15.117Z,3.65
2022-08-03T22:40:41.860Z,5.22
2022-08-03T22:43:08.400Z,2.70
2022-08-03T22:46:07.855Z,4.53
2022-08-03T22:48:23.024Z,7.25
2022-08-03T22:50:50.039Z,3.97
2022-08-03T22:53:24.105Z,4.22
2022-08-03T22:55:54.176Z,5.05
2022-08-03T22:58:20.600Z,3.08
2022-08-03T23:00:58.858Z,5.38
2022-08-03T23:03:58.805Z,3.95
2022-08-03T23:06:21.587Z,2.58
2022-08-03T23:08:50.234Z,5.57
2022-08-03T23:11:18.645Z,4.20
2022-08-03T23:13:50.178Z,7.10
2022-08-03T23:16:29.070Z,3.95
2022-08-03T23:19:16.497Z,4.60
2022-08-03T23:21:53.924Z,6.03
2022-08-03T23:24:30.244Z,3.78
2022-08-03T23:26:57.635Z,4.15
2022-08-03T23:29:26.214Z,3.63
2022-08-03T23:31:53.770Z,2.97
2022-08-03T23:34:21.843Z,2.92
2022-08-03T23:36:49.947Z,3.17
2022-08-03T23:39:20.948Z,4.28
2022-08-03T23:41:49.215Z,2.95
2022-08-03T23:44:17.713Z,5.18
2022-08-03T23:46:44.496Z,5.13
2022-08-03T23:49:10.831Z,2.88
2022-08-03T23:51:59.511Z,3.47
2022-08-03T23:54:59.173Z,3.60
2022-08-03T23:57:37.368Z,3.30
